createdAt,value
2023-03-16T00:03:24.754Z,4.13
2023-03-16T00:07:29.502Z,4.12
2023-03-16T00:11:32.723Z,4.10
2023-03-16T00:15:35.828Z,4.07
2023-03-16T00:19:39.129Z,4.04
2023-03-16T00:23:45.986Z,4.02
2023-03-16T00:27:48.889Z,4.01
2023-03-16T00:31:52.484Z,3.98
2023-03-16T00:36:02.691Z,3.96
2023-03-16T00:40:09.648Z,3.95
2023-03-16T00:44:12.752Z,3.94
2023-03-16T00:48:19.488Z,3.90
2023-03-16T00:52:23.902Z,3.90
2023-03-16T00:56:29.321Z,3.93
2023-03-16T01:00:33.018Z,3.92
2023-03-16T01:04:37.294Z,3.92
2023-03-16T01:08:40.966Z,3.89
2023-03-16T01:12:46.428Z,3.86
2023-03-16T01:16:49.855Z,3.82
2023-03-16T01:20:53.951Z,3.77
2023-03-16T01:24:57.121Z,3.74
2023-03-16T01:29:02.530Z,3.72
2023-03-16T01:33:06.028Z,3.69
2023-03-16T01:37:09.486Z,3.67
2023-03-16T01:41:14.007Z,3.65
2023-03-16T01:45:56.571Z,3.63
2023-03-16T01:50:01.318Z,3.62
2023-03-16T01:54:08.201Z,3.60
2023-03-16T01:58:14.860Z,3.63
2023-03-16T02:02:23.080Z,3.67
2023-03-16T02:06:28.824Z,3.69
2023-03-16T02:10:32.603Z,3.69
2023-03-16T02:14:35.850Z,3.69
2023-03-16T02:18:39.107Z,3.68
2023-03-16T02:22:47.239Z,3.64
2023-03-16T02:26:56.537Z,3.59
2023-03-16T02:31:02.467Z,3.52
2023-03-16T02:35:08.179Z,3.44
2023-03-16T02:39:11.454Z,3.35
2023-03-16T02:43:18.111Z,3.28
2023-03-16T02:47:31.713Z,3.22
2023-03-16T02:51:34.922Z,3.15
2023-03-16T02:55:38.281Z,3.11
2023-03-16T02:59:41.993Z,3.06
2023-03-16T03:03:46.360Z,3.03
2023-03-16T03:07:50.774Z,2.97
2023-03-16T03:11:53.840Z,2.94
2023-03-16T03:15:57.032Z,2.90
2023-03-16T03:20:07.974Z,2.89
2023-03-16T03:24:11.346Z,2.86
2023-03-16T03:28:14.570Z,2.85
2023-03-16T03:32:17.810Z,2.83
2023-03-16T03:36:22.742Z,2.86
2023-03-16T03:40:26.538Z,2.88
2023-03-16T03:44:29.633Z,2.92
2023-03-16T03:48:32.920Z,2.93
2023-03-16T03:52:37.543Z,2.95
2023-03-16T03:56:40.907Z,2.96
2023-03-16T04:00:45.174Z,2.97
2023-03-16T04:04:48.115Z,2.96
2023-03-16T04:08:54.549Z,2.96
2023-03-16T04:12:58.302Z,2.92
2023-03-16T04:17:02.232Z,2.89
2023-03-16T04:21:07.673Z,2.83
2023-03-16T04:25:12.830Z,2.81
2023-03-16T04:29:18.412Z,2.77
2023-03-16T04:33:22.122Z,2.75
2023-03-16T04:37:25.246Z,2.71
2023-03-16T04:41:30.089Z,2.67
2023-03-16T04:45:33.614Z,2.58
2023-03-16T04:49:37.108Z,2.54
2023-03-16T04:53:40.243Z,2.49
2023-03-16T04:57:45.006Z,2.49
2023-03-16T05:01:49.068Z,2.45
2023-03-16T05:05:52.530Z,2.38
2023-03-16T05:09:55.726Z,2.33
2023-03-16T05:14:00.247Z,2.26
2023-03-16T05:18:03.445Z,2.20
2023-03-16T05:22:06.844Z,2.18
2023-03-16T05:26:10.026Z,2.18
2023-03-16T05:30:16.778Z,2.21
2023-03-16T05:34:21.026Z,2.25
2023-03-16T05:38:24.154Z,2.30
2023-03-16T05:42:28.257Z,2.34
2023-03-16T05:46:33.933Z,2.36
2023-03-16T05:50:37.147Z,2.38
2023-03-16T05:54:40.456Z,2.40
2023-03-16T05:58:43.666Z,2.38
2023-03-16T06:02:49.736Z,2.49
2023-03-16T06:06:53.090Z,2.55
2023-03-16T06:10:56.293Z,2.62
2023-03-16T06:14:59.450Z,2.67
2023-03-16T06:19:04.089Z,2.72
2023-03-16T06:23:07.165Z,2.77
2023-03-16T06:27:10.576Z,2.90
2023-03-16T06:31:14.361Z,3.03
2023-03-16T06:35:19.429Z,3.16
2023-03-16T06:39:22.920Z,3.30
2023-03-16T06:43:26.301Z,3.45
2023-03-16T06:47:29.598Z,3.60
2023-03-16T06:51:34.430Z,3.73
2023-03-16T06:55:38.667Z,3.92
2023-03-16T06:59:41.823Z,4.08
2023-03-16T07:03:45.047Z,4.25
2023-03-16T07:07:50.681Z,4.40
2023-03-16T07:11:53.970Z,4.63
2023-03-16T07:15:57.016Z,4.93
2023-03-16T07:20:00.182Z,5.35
2023-03-16T07:24:05.620Z,5.83
2023-03-16T07:28:08.736Z,6.34
2023-03-16T07:32:11.925Z,6.85
2023-03-16T07:36:15.497Z,7.36
2023-03-16T07:40:20.488Z,7.93
2023-03-16T07:44:23.752Z,8.52
2023-03-16T07:48:27.715Z,9.08
2023-03-16T07:52:30.827Z,9.58
2023-03-16T07:56:47.883Z,10.03
2023-03-16T08:00:51.855Z,10.43
2023-03-16T08:04:55.024Z,10.78
2023-03-16T08:08:58.257Z,11.15
2023-03-16T08:13:05.005Z,11.55
2023-03-16T08:17:08.482Z,11.94
2023-03-16T08:21:11.612Z,12.33
2023-03-16T08:25:16.161Z,12.68
2023-03-16T08:29:21.546Z,12.90
2023-03-16T08:33:25.032Z,12.96
2023-03-16T08:37:28.687Z,13.05
2023-03-16T08:41:33.258Z,13.23
2023-03-16T08:45:38.198Z,13.44
2023-03-16T08:50:00.849Z,13.60
2023-03-16T08:54:05.740Z,13.77
2023-03-16T08:58:08.989Z,13.96
2023-03-16T09:02:16.110Z,14.22
2023-03-16T09:06:19.356Z,14.39
2023-03-16T09:10:23.475Z,14.52
2023-03-16T09:14:27.244Z,14.51
2023-03-16T09:18:32.790Z,14.61
2023-03-16T09:22:35.973Z,14.71
2023-03-16T09:26:40.431Z,14.90
2023-03-16T09:30:43.514Z,15.09
2023-03-16T09:34:50.145Z,15.13
2023-03-16T09:38:53.435Z,14.96
2023-03-16T09:43:07.458Z,14.79
2023-03-16T09:47:12.683Z,14.73
2023-03-16T09:51:22.489Z,14.84
2023-03-16T09:55:32.118Z,14.93
2023-03-16T09:59:35.323Z,15.04
2023-03-16T10:03:57.682Z,15.19
2023-03-16T10:08:10.220Z,15.42
2023-03-16T10:12:16.178Z,15.65
2023-03-16T10:16:23.052Z,15.89
2023-03-16T10:20:28.789Z,16.01
2023-03-16T10:24:44.416Z,16.21
2023-03-16T10:28:48.096Z,16.34
2023-03-16T10:32:51.854Z,16.44
2023-03-16T10:36:56.769Z,16.45
2023-03-16T10:41:01.912Z,16.50
2023-03-16T10:45:05.904Z,16.60
2023-03-16T10:49:24.242Z,16.66
2023-03-16T10:53:30.384Z,16.69
2023-03-16T10:57:37.246Z,16.67
2023-03-16T11:01:40.506Z,16.64
2023-03-16T11:05:43.761Z,16.60
2023-03-16T11:09:48.297Z,16.60
2023-03-16T11:13:57.977Z,16.63
2023-03-16T11:18:01.300Z,16.66
2023-03-16T11:22:12.246Z,16.75
2023-03-16T11:26:22.834Z,16.83
2023-03-16T11:30:31.327Z,16.90
2023-03-16T11:34:35.339Z,16.90
2023-03-16T11:38:47.972Z,16.89
2023-03-16T11:43:02.121Z,16.93
2023-03-16T11:47:18.846Z,16.97
2023-03-16T11:51:36.555Z,17.05
2023-03-16T11:55:47.197Z,17.13
2023-03-16T12:00:09.710Z,17.17
2023-03-16T12:04:37.283Z,17.22
2023-03-16T12:09:01.936Z,17.30
2023-03-16T12:13:20.698Z,17.37
2023-03-16T12:17:27.553Z,17.41
2023-03-16T12:21:35.390Z,17.37
2023-03-16T12:25:43.170Z,17.32
2023-03-16T12:29:58.805Z,17.29
2023-03-16T12:34:11.623Z,17.25
2023-03-16T12:38:30.651Z,17.17
2023-03-16T12:42:58.262Z,17.08
2023-03-16T12:47:12.624Z,16.97
2023-03-16T12:51:16.136Z,16.89
2023-03-16T12:55:25.145Z,16.88
2023-03-16T12:59:38.490Z,16.90
2023-03-16T13:03:43.017Z,16.91
2023-03-16T13:07:51.061Z,16.89
2023-03-16T13:11:56.142Z,16.80
2023-03-16T13:16:09.710Z,16.78
2023-03-16T13:20:32.053Z,16.77
2023-03-16T13:24:41.380Z,16.81
2023-03-16T13:28:51.849Z,16.79
2023-03-16T13:32:56.469Z,16.72
2023-03-16T13:37:03.694Z,16.69
2023-03-16T13:41:12.927Z,16.62
2023-03-16T13:45:23.270Z,16.50
2023-03-16T13:49:28.196Z,16.33
2023-03-16T13:53:33.537Z,16.22
2023-03-16T13:57:39.538Z,16.18
2023-03-16T14:01:45.988Z,16.22
2023-03-16T14:05:50.284Z,16.31
2023-03-16T14:09:54.273Z,16.42
2023-03-16T14:13:59.862Z,16.50
2023-03-16T14:18:15.726Z,16.59
2023-03-16T14:22:21.560Z,16.66
2023-03-16T14:26:25.006Z,16.74
2023-03-16T14:30:30.821Z,16.74
2023-03-16T14:34:39.082Z,16.76
2023-03-16T14:38:43.914Z,16.72
2023-03-16T14:42:47.491Z,16.70
2023-03-16T14:46:50.824Z,16.61
2023-03-16T14:50:58.260Z,16.54
2023-03-16T14:55:03.793Z,16.47
2023-03-16T14:59:07.337Z,16.44
2023-03-16T15:03:13.962Z,16.46
2023-03-16T15:07:27.479Z,16.46
2023-03-16T15:11:31.890Z,16.44
2023-03-16T15:15:36.222Z,16.39
2023-03-16T15:19:39.936Z,16.31
2023-03-16T15:23:45.769Z,16.26
2023-03-16T15:27:49.714Z,16.19
2023-03-16T15:31:54.568Z,16.10
2023-03-16T15:35:59.909Z,15.99
2023-03-16T15:40:17.173Z,15.89
2023-03-16T15:44:20.765Z,15.77
2023-03-16T15:48:24.905Z,15.61
2023-03-16T15:52:34.383Z,15.47
2023-03-16T15:56:53.177Z,15.28
2023-03-16T16:00:59.738Z,15.05
2023-03-16T16:05:03.176Z,14.79
2023-03-16T16:09:06.537Z,14.53
2023-03-16T16:13:15.067Z,14.26
2023-03-16T16:17:36.393Z,13.99
2023-03-16T16:21:45.429Z,13.73
2023-03-16T16:25:49.646Z,13.47
2023-03-16T16:29:54.114Z,13.26
2023-03-16T16:33:57.735Z,13.02
2023-03-16T16:38:00.744Z,12.79
2023-03-16T16:42:04.137Z,12.56
2023-03-16T16:46:14.375Z,12.34
2023-03-16T16:50:20.035Z,12.09
2023-03-16T16:54:25.851Z,11.80
2023-03-16T16:58:32.933Z,11.50
2023-03-16T17:02:46.154Z,11.18
2023-03-16T17:06:51.867Z,10.86
2023-03-16T17:10:56.094Z,10.56
2023-03-16T17:14:59.499Z,10.27
2023-03-16T17:19:05.082Z,10.01
2023-03-16T17:23:25.721Z,9.78
2023-03-16T17:27:33.177Z,9.56
2023-03-16T17:31:39.501Z,9.36
2023-03-16T17:35:45.222Z,9.17
2023-03-16T17:39:48.707Z,8.97
2023-03-16T17:43:54.950Z,8.83
2023-03-16T17:47:58.515Z,8.70
2023-03-16T17:52:02.744Z,8.57
2023-03-16T17:56:17.113Z,8.45
2023-03-16T18:00:24.843Z,8.33
2023-03-16T18:04:28.218Z,8.22
2023-03-16T18:08:34.699Z,8.12
2023-03-16T18:12:38.234Z,8.03
2023-03-16T18:16:42.097Z,7.96
2023-03-16T18:20:46.720Z,7.91
2023-03-16T18:24:52.993Z,7.89
2023-03-16T18:28:59.927Z,7.86
2023-03-16T18:33:04.194Z,7.83
2023-03-16T18:37:09.102Z,7.78
2023-03-16T18:41:18.257Z,7.75
2023-03-16T18:45:22.346Z,7.70
2023-03-16T18:49:30.807Z,7.65
2023-03-16T18:53:34.717Z,7.58
2023-03-16T18:57:39.105Z,7.52
2023-03-16T19:01:44.856Z,7.43
2023-03-16T19:05:48.526Z,7.38
2023-03-16T19:09:57.110Z,7.28
2023-03-16T19:14:01.681Z,7.18
2023-03-16T19:18:05.202Z,7.07
2023-03-16T19:22:13.897Z,6.99
2023-03-16T19:26:18.393Z,6.92
2023-03-16T19:30:29.696Z,6.86
2023-03-16T19:34:33.393Z,6.79
2023-03-16T19:38:39.678Z,6.75
2023-03-16T19:42:43.533Z,6.73
2023-03-16T19:46:48.937Z,6.74
2023-03-16T19:50:52.297Z,6.73
2023-03-16T19:54:56.026Z,6.76
2023-03-16T19:59:00.571Z,6.78
2023-03-16T20:03:05.612Z,6.80
2023-03-16T20:07:17.054Z,6.81
2023-03-16T20:11:26.685Z,6.81
2023-03-16T20:15:33.328Z,6.81
2023-03-16T20:19:37.843Z,6.82
2023-03-16T20:23:41.417Z,6.81
2023-03-16T20:27:45.335Z,6.79
2023-03-16T20:31:49.226Z,6.75
2023-03-16T20:35:54.700Z,6.73
2023-03-16T20:40:00.363Z,6.70
2023-03-16T20:44:04.073Z,6.65
2023-03-16T20:48:15.605Z,6.61
2023-03-16T20:52:22.932Z,6.57
2023-03-16T20:56:27.055Z,6.54
2023-03-16T21:00:35.409Z,6.52
2023-03-16T21:04:38.764Z,6.49
2023-03-16T21:08:43.953Z,6.46
2023-03-16T21:12:49.488Z,6.44
2023-03-16T21:16:55.235Z,6.41
2023-03-16T21:20:58.956Z,6.39
2023-03-16T21:25:03.800Z,6.41
2023-03-16T21:29:12.604Z,6.40
2023-03-16T21:33:30.700Z,6.41
2023-03-16T21:37:34.210Z,6.40
2023-03-16T21:41:38.950Z,6.41
2023-03-16T21:45:43.606Z,6.38
2023-03-16T21:49:47.036Z,6.37
2023-03-16T21:53:51.423Z,6.36
2023-03-16T21:57:57.161Z,6.33
2023-03-16T22:02:02.396Z,6.31
2023-03-16T22:06:07.600Z,6.29
2023-03-16T22:10:16.293Z,6.26
2023-03-16T22:14:22.201Z,6.22
2023-03-16T22:18:30.257Z,6.16
2023-03-16T22:22:34.715Z,6.10
2023-03-16T22:26:38.108Z,6.05
2023-03-16T22:30:43.010Z,6.03
2023-03-16T22:34:49.836Z,5.99
2023-03-16T22:38:59.948Z,5.96
2023-03-16T22:43:08.380Z,5.93
2023-03-16T22:47:22.698Z,5.89
2023-03-16T22:51:29.080Z,5.83
2023-03-16T22:55:36.341Z,5.80
2023-03-16T22:59:39.698Z,5.77
2023-03-16T23:03:44.314Z,5.73
2023-03-16T23:07:48.286Z,5.70
2023-03-16T23:11:54.468Z,5.66
2023-03-16T23:15:58.105Z,5.62
2023-03-16T23:20:02.744Z,5.57
2023-03-16T23:24:07.330Z,5.51
2023-03-16T23:28:14.297Z,5.48
2023-03-16T23:32:18.728Z,5.41
2023-03-16T23:36:25.426Z,5.35
2023-03-16T23:40:31.167Z,5.27
2023-03-16T23:44:35.048Z,5.23
2023-03-16T23:48:40.030Z,5.20
2023-03-16T23:52:44.877Z,5.17
2023-03-16T23:56:48.403Z,5.14
